Time;durP1;ratioP1;P1;durP2;ratioP2;P2;SDS_P1;SDS_P2;PMS_P1;PMS_P2;Temp;Humidity;BMP_temperature;BMP_pressure;BME280_temperature;BME280_humidity;BME280_pressure;Samples;Min_cycle;Max_cycle;Signal;HPM_P1;HPM_P2
2022/07/08 00:02:18;;;;;;;4.30;1.60;;;;;;;18.27;68.96;99675.70;104996;1277;23196;-59
2022/07/08 00:04:45;;;;;;;3.00;1.40;;;;;;;18.28;68.92;99671.12;104951;1278;23466;-60
2022/07/08 00:07:12;;;;;;;3.00;1.30;;;;;;;18.29;68.86;99672.82;104875;1276;138211;-59
2022/07/08 00:09:39;;;;;;;1.40;1.30;;;;;;;18.29;68.83;99671.27;104909;1276;22574;-59
2022/07/08 00:12:06;;;;;;;2.40;1.30;;;;;;;18.29;68.74;99674.19;104838;1276;138209;-59
2022/07/08 00:14:32;;;;;;;1.80;1.30;;;;;;;18.30;68.82;99681.55;104903;1274;25332;-59
2022/07/08 00:16:59;;;;;;;1.30;1.20;;;;;;;18.30;68.91;99685.36;104962;1276;25204;-59
2022/07/08 00:19:26;;;;;;;1.60;1.30;;;;;;;18.31;68.97;99696.27;104851;1275;138110;-59
2022/07/08 00:21:53;;;;;;;2.20;1.30;;;;;;;18.32;69.14;99702.69;104757;1276;22718;-60
2022/07/08 00:24:20;;;;;;;2.90;1.40;;;;;;;18.33;69.11;99708.45;104797;1276;139077;-59
2022/07/08 00:26:46;;;;;;;1.90;1.50;;;;;;;18.34;69.37;99710.98;104984;1277;25123;-59
2022/07/08 00:29:13;;;;;;;1.50;1.40;;;;;;;18.34;70.01;99712.04;105005;1276;24277;-59
2022/07/08 00:31:40;;;;;;;2.00;1.30;;;;;;;18.31;70.26;99708.29;104793;1277;140488;-59
2022/07/08 00:34:07;;;;;;;2.10;1.40;;;;;;;18.29;70.40;99712.64;104981;1276;22790;-58
2022/07/08 00:36:35;;;;;;;2.90;1.40;;;;;;;18.27;70.89;99712.28;104854;1277;139667;-59
2022/07/08 00:39:03;;;;;;;1.60;1.30;;;;;;;18.24;71.28;99708.58;104996;1276;24269;-58
2022/07/08 00:41:30;;;;;;;1.50;1.40;;;;;;;18.21;71.61;99708.63;104912;1276;23021;-58
2022/07/08 00:43:57;;;;;;;1.90;1.30;;;;;;;18.19;71.81;99710.19;105033;1274;138472;-58
2022/07/08 00:46:24;;;;;;;2.50;1.60;;;;;;;18.16;71.71;99713.60;105100;1274;22696;-59
2022/07/08 00:48:50;;;;;;;3.70;1.60;;;;;;;18.14;71.72;99715.23;105002;1274;138769;-58
2022/07/08 00:51:17;;;;;;;2.20;1.50;;;;;;;18.14;71.88;99721.48;104936;1276;22595;-58
2022/07/08 00:53:47;;;;;;;1.40;1.30;;;;;;;18.12;72.12;99725.17;104956;1274;138325;-58
2022/07/08 00:56:14;;;;;;;1.80;1.50;;;;;;;18.12;72.44;99723.81;107403;1274;23043;-58
2022/07/08 00:58:41;;;;;;;2.80;1.40;;;;;;;18.11;72.78;99717.59;104921;1274;22568;-58
2022/07/08 01:01:08;;;;;;;2.20;1.60;;;;;;;18.09;72.82;99718.06;104813;1276;138259;-59
2022/07/08 01:03:35;;;;;;;1.60;1.40;;;;;;;18.09;72.32;99709.85;104835;1276;22840;-58
2022/07/08 01:06:01;;;;;;;2.70;1.40;;;;;;;18.09;72.23;99709.52;104704;1276;139302;-58
2022/07/08 01:08:28;;;;;;;2.80;1.40;;;;;;;18.09;71.67;99704.79;104913;1276;25298;-59
2022/07/08 01:10:56;;;;;;;2.00;1.50;;;;;;;18.09;71.49;99710.51;104828;1278;22573;-58
2022/07/08 01:13:24;;;;;;;1.50;1.40;;;;;;;18.09;71.08;99710.73;104843;1276;139695;-58
2022/07/08 01:15:51;;;;;;;1.90;1.40;;;;;;;18.11;70.98;99714.06;104888;1277;22571;-58
2022/07/08 01:18:36;;;;;;;1.60;1.50;;;;;;;18.10;70.98;99707.63;104758;1277;138377;-58
2022/07/08 01:21:03;;;;;;;1.30;1.20;;;;;;;18.14;70.93;99707.95;104937;1274;24313;-59
2022/07/08 01:23:30;;;;;;;2.60;1.50;;;;;;;18.15;71.09;99706.28;104929;1276;23882;-59
2022/07/08 01:25:57;;;;;;;2.20;1.60;;;;;;;18.14;71.22;99704.68;109022;1276;138147;-59
2022/07/08 01:28:24;;;;;;;3.60;1.50;;;;;;;18.14;71.18;99704.54;109135;1276;23259;-59
2022/07/08 01:30:51;;;;;;;1.60;1.50;;;;;;;18.13;71.30;99706.59;109068;1274;138858;-59
2022/07/08 01:33:18;;;;;;;2.80;1.70;;;;;;;18.13;71.66;99713.21;109442;1273;23598;-59
2022/07/08 01:35:45;;;;;;;3.90;1.60;;;;;;;18.11;71.83;99718.37;109170;1274;138674;-59
2022/07/08 01:38:12;;;;;;;2.70;1.50;;;;;;;18.08;72.14;99719.18;109353;1275;23156;-59
2022/07/08 01:40:39;;;;;;;3.80;1.50;;;;;;;18.07;72.59;99719.54;109422;1274;22479;-59
2022/07/08 01:43:06;;;;;;;1.80;1.50;;;;;;;18.05;72.90;99716.75;109201;1276;139383;-59
2022/07/08 01:45:33;;;;;;;4.20;1.50;;;;;;;18.04;73.26;99714.83;109340;1275;22400;-59
2022/07/08 01:48:00;;;;;;;7.20;2.10;;;;;;;18.04;73.62;99710.64;109069;1276;138879;-59
2022/07/08 01:50:27;;;;;;;3.20;1.80;;;;;;;18.05;73.92;99714.39;109238;1274;23200;-61
2022/07/08 01:52:54;;;;;;;4.90;1.80;;;;;;;18.01;74.36;99715.34;109238;1274;22449;-60
2022/07/08 01:55:21;;;;;;;2.40;1.80;;;;;;;17.98;74.77;99715.06;109307;1274;138695;-60
2022/07/08 01:57:48;;;;;;;3.10;1.70;;;;;;;17.95;75.09;99714.61;109243;1274;22459;-60
2022/07/08 02:00:15;;;;;;;3.60;2.10;;;;;;;17.94;75.33;99715.02;109178;1274;138969;-60
2022/07/08 02:02:43;;;;;;;3.30;1.70;;;;;;;17.92;75.48;99716.77;109281;1274;22447;-60
2022/07/08 02:05:10;;;;;;;2.70;1.70;;;;;;;17.89;75.34;99714.27;109280;1274;22461;-59
2022/07/08 02:07:38;;;;;;;3.40;1.70;;;;;;;17.87;75.22;99717.23;109245;1276;139111;-59
2022/07/08 02:10:05;;;;;;;2.00;1.70;;;;;;;17.85;75.29;99712.70;109284;1274;22465;-59
2022/07/08 02:12:33;;;;;;;2.50;1.80;;;;;;;17.85;75.05;99709.67;109312;1272;138843;-60
2022/07/08 02:15:06;;;;;;;4.10;1.70;;;;;;;17.83;74.65;99705.29;109311;1277;22429;-59
2022/07/08 02:17:35;;;;;;;2.00;1.50;;;;;;;17.81;74.47;99693.91;109202;1274;138932;-59
2022/07/08 02:20:13;;;;;;;1.70;1.60;;;;;;;17.80;74.18;99691.16;109225;1274;22435;-60
2022/07/08 02:22:40;;;;;;;3.70;1.40;;;;;;;17.79;73.74;99693.55;109368;1274;22452;-59
2022/07/08 02:25:08;;;;;;;1.50;1.30;;;;;;;17.80;73.53;99712.34;109067;1277;138498;-60
2022/07/08 02:27:35;;;;;;;3.20;1.70;;;;;;;17.80;73.56;99724.89;109376;1274;22422;-60
2022/07/08 02:30:03;;;;;;;5.00;1.80;;;;;;;17.81;73.71;99725.77;109175;1276;140040;-59
2022/07/08 02:32:30;;;;;;;7.60;1.60;;;;;;;17.79;74.41;99724.19;109197;1274;22396;-60
2022/07/08 02:34:57;;;;;;;2.60;1.80;;;;;;;17.77;74.81;99717.41;109241;1274;22455;-59
2022/07/08 02:37:24;;;;;;;4.00;1.90;;;;;;;17.71;75.22;99719.38;105216;1274;138915;-59
2022/07/08 02:39:51;;;;;;;2.50;1.90;;;;;;;17.65;75.33;99724.73;105144;1274;24267;-59
2022/07/08 02:42:17;;;;;;;6.10;2.20;;;;;;;17.59;75.52;99727.98;104985;1274;138315;-59
2022/07/08 02:44:44;;;;;;;2.30;1.80;;;;;;;17.53;75.74;99723.98;105100;1274;22591;-59
2022/07/08 02:47:11;;;;;;;6.40;2.10;;;;;;;17.48;75.91;99719.97;105178;1274;22729;-58
2022/07/08 02:49:39;;;;;;;2.40;1.90;;;;;;;17.42;76.23;99715.02;104910;1275;139232;-58
2022/07/08 02:52:06;;;;;;;4.40;2.10;;;;;;;17.36;76.46;99713.87;109019;1274;385287;-59
2022/07/08 02:56:08;;;;;;;2.80;2.10;;;;;;;17.30;76.34;99717.66;101971;1310;545707;-61
2022/07/08 02:58:35;;;;;;;2.90;1.90;;;;;;;17.21;76.40;99715.07;104414;1284;24333;-60
2022/07/08 03:01:02;;;;;;;2.30;1.80;;;;;;;17.21;76.29;99720.37;103976;1287;138487;-60
2022/07/08 03:03:29;;;;;;;2.60;1.90;;;;;;;17.18;76.27;99719.89;103947;1290;25356;-60
2022/07/08 03:05:55;;;;;;;2.10;1.40;;;;;;;17.16;76.10;99721.00;103911;1287;139107;-60
2022/07/08 03:08:22;;;;;;;3.90;1.80;;;;;;;17.14;75.97;99726.92;103921;1290;25286;-60
2022/07/08 03:10:49;;;;;;;5.00;2.10;;;;;;;17.12;76.05;99728.77;103925;1286;200001;-60
2022/07/08 03:13:16;;;;;;;2.20;1.90;;;;;;;17.12;76.38;99732.23;103794;1289;139033;-60
2022/07/08 03:15:43;;;;;;;4.10;2.40;;;;;;;17.11;76.50;99734.95;103800;1289;24024;-60
2022/07/08 03:18:10;;;;;;;5.00;1.90;;;;;;;17.10;76.65;99735.89;103878;1289;138806;-60
2022/07/08 03:20:37;;;;;;;3.00;1.90;;;;;;;17.09;76.67;99738.04;104078;1287;24246;-59
2022/07/08 03:23:04;;;;;;;12.40;2.00;;;;;;;17.08;76.60;99740.65;104049;1287;24334;-60
2022/07/08 03:25:33;;;;;;;3.10;1.70;;;;;;;17.09;76.67;99742.40;104020;1287;138785;-60
2022/07/08 03:28:00;;;;;;;2.10;1.80;;;;;;;17.09;76.60;99743.44;108175;1286;22472;-58
2022/07/08 03:30:27;;;;;;;3.10;1.70;;;;;;;17.10;76.54;99741.39;108188;1286;138439;-59
2022/07/08 03:32:54;;;;;;;2.40;1.50;;;;;;;17.11;76.52;99743.52;108218;1286;23183;-58
2022/07/08 03:35:21;;;;;;;3.10;1.70;;;;;;;17.13;76.25;99749.13;108262;1286;22479;-58
2022/07/08 03:37:48;;;;;;;3.10;1.90;;;;;;;17.14;76.11;99751.59;108234;1285;140113;-58
2022/07/08 03:43:00;;;;;;;3.10;1.60;;;;;;;17.19;75.95;99747.64;109210;1276;139081;-58
2022/07/08 03:45:27;;;;;;;2.10;1.60;;;;;;;17.21;75.92;99744.21;109309;1276;22430;-58
2022/07/08 03:47:53;;;;;;;2.40;1.80;;;;;;;17.24;75.75;99739.99;109191;1276;141223;-59
2022/07/08 03:50:20;;;;;;;1.90;1.50;;;;;;;17.26;75.39;99735.50;109369;1276;22462;-58
2022/07/08 03:52:47;;;;;;;2.00;1.30;;;;;;;17.28;75.11;99735.20;109345;1276;22445;-58
2022/07/08 03:55:14;;;;;;;1.70;1.40;;;;;;;17.31;74.92;99731.75;109215;1276;137966;-59
2022/07/08 03:57:41;;;;;;;3.00;1.60;;;;;;;17.35;74.55;99735.42;109399;1276;22444;-58
2022/07/08 04:00:08;;;;;;;1.90;1.80;;;;;;;17.39;74.31;99739.34;109281;1276;139626;-59
2022/07/08 04:02:35;;;;;;;4.60;2.10;;;;;;;17.42;74.16;99742.11;109344;1276;23195;-58
2022/07/08 04:05:02;;;;;;;2.60;1.70;;;;;;;17.47;74.09;99739.33;109341;1275;23262;-58
2022/07/08 04:07:29;;;;;;;3.00;1.50;;;;;;;17.53;74.08;99739.24;109183;1276;137779;-59
2022/07/08 04:09:56;;;;;;;4.60;1.60;;;;;;;17.58;73.99;99742.16;109168;1277;22408;-58
2022/07/08 04:12:23;;;;;;;3.30;1.90;;;;;;;17.64;73.71;99737.71;109245;1274;139338;-58
2022/07/08 04:14:50;;;;;;;3.30;1.70;;;;;;;17.69;73.48;99737.16;109238;1276;22441;-58
2022/07/08 04:17:17;;;;;;;2.40;1.50;;;;;;;17.73;73.50;99736.83;109311;1276;22454;-58
2022/07/08 04:19:43;;;;;;;2.00;1.50;;;;;;;17.77;73.56;99735.25;109096;1276;138925;-58
2022/07/08 04:22:10;;;;;;;5.10;2.10;;;;;;;17.82;73.18;99733.74;109380;1275;22477;-58
2022/07/08 04:24:37;;;;;;;2.40;1.70;;;;;;;17.86;73.15;99734.63;109242;1276;138967;-59
2022/07/08 04:27:04;;;;;;;2.40;1.70;;;;;;;17.90;73.22;99738.15;109316;1277;22461;-58
2022/07/08 04:29:31;;;;;;;3.20;2.00;;;;;;;17.93;73.08;99740.62;109372;1276;22513;-59
2022/07/08 04:31:58;;;;;;;3.90;1.90;;;;;;;17.95;72.86;99743.13;109208;1277;139130;-58
2022/07/08 04:34:25;;;;;;;2.40;2.00;;;;;;;17.96;72.67;99740.39;109322;1276;22553;-58
2022/07/08 04:36:52;;;;;;;2.00;1.90;;;;;;;17.99;72.55;99743.29;109085;1276;139749;-59
2022/07/08 04:43:18;;;;;;;2.60;2.10;;;;;;;18.04;72.39;99750.58;109239;1276;139029;-59
2022/07/08 04:45:48;;;;;;;3.90;1.90;;;;;;;18.06;72.36;99748.11;109429;1276;23127;-59
2022/07/08 04:48:44;;;;;;;4.70;2.10;;;;;;;18.09;72.24;99753.15;109122;1277;139510;-60
2022/07/08 04:51:11;;;;;;;2.60;1.90;;;;;;;18.11;72.38;99753.88;109248;1276;23673;-59
2022/07/08 04:53:38;;;;;;;2.40;2.00;;;;;;;18.14;72.25;99753.45;109377;1277;22507;-60
2022/07/08 04:56:05;;;;;;;3.10;2.20;;;;;;;18.17;72.14;99750.04;109342;1274;22674;-59
2022/07/08 04:58:31;;;;;;;3.00;2.40;;;;;;;18.20;72.20;99749.64;109444;1274;22454;-59
2022/07/08 05:00:58;;;;;;;4.40;2.20;;;;;;;18.21;72.18;99746.75;109366;1274;137800;-58
2022/07/08 05:03:25;;;;;;;4.70;2.40;;;;;;;18.23;72.24;99745.89;109350;1274;22418;-59
2022/07/08 05:05:52;;;;;;;3.10;1.90;;;;;;;18.24;72.02;99753.64;109239;1274;138550;-59
2022/07/08 05:08:19;;;;;;;3.50;2.40;;;;;;;18.27;71.86;99751.90;109334;1274;22445;-59
2022/07/08 05:10:48;;;;;;;2.80;2.20;;;;;;;18.29;72.04;99756.88;109331;1274;22445;-59
2022/07/08 05:13:15;;;;;;;3.80;2.30;;;;;;;18.33;71.83;99761.10;109276;1274;137788;-59
2022/07/08 05:15:41;;;;;;;6.60;2.90;;;;;;;18.36;71.38;99755.36;109317;1277;22482;-60
2022/07/08 05:18:08;;;;;;;4.40;2.00;;;;;;;18.38;71.34;99752.95;109327;1274;138783;-59
2022/07/08 05:20:36;;;;;;;2.90;2.20;;;;;;;18.41;71.47;99750.77;109393;1274;22442;-59
2022/07/08 05:23:03;;;;;;;4.30;1.90;;;;;;;18.44;71.32;99748.50;109411;1275;22257;-59
2022/07/08 05:25:30;;;;;;;4.40;2.20;;;;;;;18.48;71.16;99746.36;109158;1276;139275;-59
2022/07/08 05:27:56;;;;;;;2.50;1.70;;;;;;;18.52;71.10;99747.30;109384;1274;22457;-59
2022/07/08 05:30:23;;;;;;;10.80;2.10;;;;;;;18.55;70.92;99748.61;109142;1276;138652;-59
2022/07/08 05:32:50;;;;;;;4.00;1.70;;;;;;;18.58;70.99;99748.36;109369;1277;23178;-60
2022/07/08 05:35:17;;;;;;;3.00;2.10;;;;;;;18.61;70.69;99748.61;109393;1275;22449;-60
2022/07/08 05:37:44;;;;;;;3.70;1.90;;;;;;;18.65;70.39;99748.17;109181;1275;138252;-60
2022/07/08 05:40:11;;;;;;;4.60;1.90;;;;;;;18.67;70.17;99749.41;109397;1274;22421;-59
2022/07/08 05:42:38;;;;;;;2.10;1.70;;;;;;;18.69;70.30;99752.84;109272;1274;138402;-59
2022/07/08 05:45:06;;;;;;;1.80;1.60;;;;;;;18.70;70.03;99759.55;109381;1274;22232;-59
2022/07/08 05:47:40;;;;;;;2.30;1.80;;;;;;;18.70;70.07;99767.13;109238;1274;138993;-59
2022/07/08 05:50:07;;;;;;;4.10;1.90;;;;;;;18.69;69.57;99775.75;109393;1274;23825;-59
2022/07/08 05:52:34;;;;;;;5.60;2.00;;;;;;;18.68;69.62;99778.97;109269;1277;22495;-59
2022/07/08 05:55:01;;;;;;;1.70;1.60;;;;;;;18.68;69.48;99779.08;109346;1274;138128;-60
2022/07/08 05:57:28;;;;;;;4.00;1.60;;;;;;;18.69;69.37;99778.79;109331;1276;22578;-60
2022/07/08 05:59:55;;;;;;;3.60;1.80;;;;;;;18.70;69.27;99778.33;109215;1275;140513;-59
2022/07/08 06:02:25;;;;;;;2.70;2.00;;;;;;;18.70;69.06;99776.05;109262;1276;22455;-59
2022/07/08 06:04:52;;;;;;;2.70;1.70;;;;;;;18.71;68.76;99774.89;109364;1274;23405;-59
2022/07/08 06:07:19;;;;;;;6.20;2.40;;;;;;;18.70;68.46;99773.30;109339;1274;139861;-59
2022/07/08 06:09:45;;;;;;;2.20;1.40;;;;;;;18.69;67.59;99773.27;109367;1275;22466;-59
2022/07/08 06:12:12;;;;;;;2.00;1.50;;;;;;;18.65;67.18;99776.65;109290;1274;140282;-59
2022/07/08 06:14:39;;;;;;;2.90;1.50;;;;;;;18.62;67.28;99779.02;109325;1275;23159;-59
2022/07/08 06:17:06;;;;;;;4.70;1.60;;;;;;;18.59;67.36;99786.00;109307;1277;22447;-60
2022/07/08 06:19:33;;;;;;;4.50;1.70;;;;;;;18.57;67.35;99787.17;109231;1277;139612;-60
2022/07/08 06:21:59;;;;;;;1.60;1.30;;;;;;;18.53;67.67;99784.20;109251;1277;22555;-60
2022/07/08 06:24:26;;;;;;;4.40;1.90;;;;;;;18.52;68.10;99783.10;109235;1274;139252;-60
2022/07/08 06:26:53;;;;;;;3.30;1.40;;;;;;;18.51;68.22;99779.88;109206;1277;22512;-60
2022/07/08 06:29:20;;;;;;;4.30;1.50;;;;;;;18.48;68.19;99771.91;109360;1276;22559;-60
2022/07/08 06:31:47;;;;;;;3.30;1.60;;;;;;;18.44;67.99;99761.68;109175;1277;138896;-60
2022/07/08 06:34:13;;;;;;;3.80;1.80;;;;;;;18.41;68.39;99754.40;109326;1274;22493;-60
2022/07/08 06:36:41;;;;;;;1.50;1.40;;;;;;;18.40;68.99;99750.33;109136;1277;138027;-60
2022/07/08 06:39:08;;;;;;;2.80;1.50;;;;;;;18.39;69.41;99742.91;109251;1276;22460;-60
2022/07/08 06:41:35;;;;;;;7.10;1.90;;;;;;;18.34;69.69;99735.14;109304;1274;23585;-59
2022/07/08 06:44:02;;;;;;;2.50;1.70;;;;;;;18.29;70.15;99722.64;109161;1277;139554;-60
2022/07/08 06:46:29;;;;;;;1.70;1.60;;;;;;;18.25;70.69;99707.75;106929;1277;22565;-58
2022/07/08 06:48:56;;;;;;;4.30;1.80;;;;;;;18.23;70.74;99702.26;104983;1278;138020;-59
2022/07/08 06:51:23;;;;;;;1.80;1.50;;;;;;;18.22;70.32;99690.36;105001;1278;22818;-60
2022/07/08 06:56:35;;;;;;;3.30;2.30;;;;;;;18.23;70.35;99688.91;104967;1278;22776;-59
2022/07/08 06:59:01;;;;;;;3.30;2.10;;;;;;;18.25;70.78;99690.41;105016;1278;25411;-60
2022/07/08 07:01:28;;;;;;;3.20;1.80;;;;;;;18.30;71.29;99703.79;104911;1274;139691;-59
2022/07/08 07:03:55;;;;;;;3.90;2.10;;;;;;;18.36;70.88;99708.75;105029;1274;25344;-59
2022/07/08 07:06:22;;;;;;;2.40;2.10;;;;;;;18.40;70.98;99719.81;109143;1275;138804;-60
2022/07/08 07:08:49;;;;;;;5.20;1.90;;;;;;;18.43;70.69;99726.84;109266;1277;22656;-58
2022/07/08 07:11:16;;;;;;;2.50;1.70;;;;;;;18.45;70.89;99718.30;109346;1276;22587;-59
2022/07/08 07:13:43;;;;;;;5.50;1.70;;;;;;;18.48;70.53;99709.55;109380;1274;139527;-58
2022/07/08 07:16:10;;;;;;;2.40;1.60;;;;;;;18.49;69.85;99683.37;109322;1276;22470;-59
2022/07/08 07:18:37;;;;;;;2.30;2.10;;;;;;;18.46;69.08;99650.14;109158;1274;138129;-58
2022/07/08 07:21:04;;;;;;;3.60;1.70;;;;;;;18.39;68.39;99635.02;109361;1275;23111;-58
2022/07/08 07:23:31;;;;;;;3.80;1.90;;;;;;;18.32;68.57;99642.02;109282;1276;22543;-59
2022/07/08 07:25:58;;;;;;;13.30;2.80;;;;;;;18.27;68.40;99659.45;109208;1277;139487;-59
2022/07/08 07:28:25;;;;;;;31.50;4.80;;;;;;;18.24;67.77;99679.08;109325;1274;23222;-60
2022/07/08 07:30:52;;;;;;;1.50;1.20;;;;;;;18.21;67.46;99700.96;109226;1274;138861;-59
2022/07/08 07:33:19;;;;;;;5.90;1.50;;;;;;;18.20;67.72;99705.88;109404;1274;22552;-60
2022/07/08 07:35:46;;;;;;;3.90;1.60;;;;;;;18.21;67.66;99701.35;109292;1274;139531;-59
2022/07/08 07:38:13;;;;;;;2.70;1.50;;;;;;;18.22;67.85;99693.52;109368;1274;22491;-59
2022/07/08 07:40:40;;;;;;;3.30;1.60;;;;;;;18.26;68.23;99696.36;109442;1274;22422;-59
2022/07/08 07:43:07;;;;;;;3.10;1.40;;;;;;;18.30;67.79;99704.27;109219;1274;138223;-59
2022/07/08 07:45:34;;;;;;;1.70;1.60;;;;;;;18.33;67.39;99713.48;108563;1277;22876;-58
2022/07/08 07:48:01;;;;;;;3.80;1.30;;;;;;;18.34;67.12;99715.00;109249;1274;138721;-59
2022/07/08 07:50:28;;;;;;;2.30;1.60;;;;;;;18.35;67.17;99719.23;109392;1274;22423;-59
2022/07/08 07:52:55;;;;;;;2.40;1.30;;;;;;;18.35;66.64;99715.04;109360;1273;22753;-60
2022/07/08 07:55:22;;;;;;;2.90;1.80;;;;;;;18.33;66.78;99710.98;109232;1274;138468;-59
2022/07/08 07:57:49;;;;;;;3.10;1.30;;;;;;;18.32;67.29;99713.91;109319;1276;22676;-59
2022/07/08 08:00:16;;;;;;;2.60;1.50;;;;;;;18.32;67.59;99725.04;109256;1274;139332;-59
2022/07/08 08:02:43;;;;;;;6.60;1.40;;;;;;;18.33;67.65;99734.29;109416;1274;23136;-59
2022/07/08 08:05:10;;;;;;;2.80;1.30;;;;;;;18.33;67.73;99734.45;109403;1274;22471;-59
2022/07/08 08:07:38;;;;;;;1.20;1.10;;;;;;;18.34;67.67;99740.98;109314;1274;139632;-59
2022/07/08 08:10:05;;;;;;;3.80;1.60;;;;;;;18.35;67.49;99736.52;109336;1274;24038;-59
2022/07/08 08:12:32;;;;;;;4.10;1.80;;;;;;;18.34;67.97;99726.41;109151;1277;138252;-59
2022/07/08 08:14:59;;;;;;;1.90;1.40;;;;;;;18.35;68.42;99722.70;109307;1277;22450;-59
2022/07/08 08:17:26;;;;;;;3.50;1.60;;;;;;;18.38;67.73;99719.30;109400;1274;22466;-59
2022/07/08 08:19:53;;;;;;;2.20;1.50;;;;;;;18.39;67.03;99712.88;109352;1274;138560;-59
2022/07/08 08:22:20;;;;;;;9.80;1.80;;;;;;;18.40;67.26;99714.36;109304;1276;23238;-59
2022/07/08 08:24:46;;;;;;;2.80;1.80;;;;;;;18.43;66.91;99711.77;109213;1275;138958;-59
2022/07/08 08:27:13;;;;;;;3.60;1.60;;;;;;;18.47;66.44;99715.55;109350;1274;22462;-60
2022/07/08 08:29:40;;;;;;;4.00;1.70;;;;;;;18.49;65.98;99718.30;109334;1274;22587;-60
2022/07/08 08:32:07;;;;;;;7.00;2.00;;;;;;;18.53;65.87;99716.70;108918;1276;139125;-58
2022/07/08 08:34:34;;;;;;;2.00;1.60;;;;;;;18.58;65.73;99708.13;109322;1277;22485;-59
2022/07/08 08:37:01;;;;;;;2.50;1.60;;;;;;;18.65;65.43;99709.31;109199;1277;139737;-59
2022/07/08 08:39:28;;;;;;;2.30;1.30;;;;;;;18.72;64.74;99711.06;109311;1275;22459;-59
2022/07/08 08:41:54;;;;;;;3.60;1.10;;;;;;;18.77;64.10;99711.73;109375;1274;22417;-59
2022/07/08 08:44:21;;;;;;;3.60;1.50;;;;;;;18.80;63.32;99711.33;109357;1274;138651;-60
2022/07/08 08:46:48;;;;;;;3.40;1.90;;;;;;;18.83;63.18;99716.90;109318;1277;22416;-60
2022/07/08 08:49:16;;;;;;;3.80;1.50;;;;;;;18.84;63.22;99714.67;109169;1274;137524;-59
2022/07/08 08:51:43;;;;;;;5.50;2.50;;;;;;;18.86;62.75;99714.96;109304;1274;22546;-58
2022/07/08 08:54:09;;;;;;;2.60;1.50;;;;;;;18.91;62.63;99715.79;109159;1274;138950;-59
2022/07/08 08:56:36;;;;;;;1.50;1.40;;;;;;;18.97;62.42;99712.85;109334;1274;22420;-59
2022/07/08 08:59:03;;;;;;;1.70;1.40;;;;;;;19.01;62.62;99710.02;109219;1275;22416;-58
2022/07/08 09:01:30;;;;;;;2.40;1.50;;;;;;;19.05;62.14;99710.50;109052;1276;140823;-59
2022/07/08 09:04:10;;;;;;;30.70;22.90;;;;;;;19.12;61.03;99707.13;109257;1276;22493;-59
2022/07/08 09:06:38;;;;;;;2.40;1.90;;;;;;;19.15;60.69;99702.39;109035;1277;137978;-58
2022/07/08 09:09:06;;;;;;;8.30;2.20;;;;;;;19.19;60.78;99704.92;109349;1275;22537;-58
2022/07/08 09:11:33;;;;;;;23.50;3.00;;;;;;;19.23;61.05;99701.93;109392;1275;22558;-58
2022/07/08 09:14:14;;;;;;;5.40;2.00;;;;;;;19.27;60.87;99698.25;109200;1275;141440;-59
2022/07/08 09:16:44;;;;;;;3.50;1.60;;;;;;;19.33;60.30;99702.33;109343;1275;22555;-59
2022/07/08 09:19:14;;;;;;;3.80;1.60;;;;;;;19.34;59.93;99699.92;109159;1276;137379;-58
2022/07/08 09:21:51;;;;;;;4.10;1.60;;;;;;;19.34;59.97;99698.36;109368;1274;22420;-59
2022/07/08 09:24:18;;;;;;;;;;;;;;;19.37;60.66;99697.42;109156;1276;137959;-59
2022/07/08 09:26:45;;;;;;;14.90;10.10;;;;;;;19.45;61.23;99701.66;109245;1277;23257;-59
2022/07/08 09:29:12;;;;;;;1.90;1.70;;;;;;;19.55;61.02;99696.14;109323;1276;22437;-59
2022/07/08 09:31:39;;;;;;;3.50;2.30;;;;;;;19.64;59.98;99693.94;109219;1274;137316;-59
2022/07/08 09:34:09;;;;;;;2.60;1.70;;;;;;;19.70;60.20;99692.84;109392;1274;23456;-60
2022/07/08 09:36:45;;;;;;;27.80;24.50;;;;;;;19.79;60.23;99690.08;109202;1276;138094;-59
2022/07/08 09:39:23;;;;;;;2.70;1.80;;;;;;;19.90;60.08;99692.40;109371;1274;22480;-59
2022/07/08 09:41:50;;;;;;;2.90;1.70;;;;;;;20.00;59.36;99690.93;109402;1274;22465;-59
2022/07/08 09:44:19;;;;;;;2.00;1.00;;;;;;;20.02;59.09;99693.04;109185;1275;138636;-59
2022/07/08 09:46:47;;;;;;;9.00;5.60;;;;;;;20.01;58.95;99693.06;109274;1275;22265;-60
2022/07/08 09:49:33;;;;;;;5.40;1.60;;;;;;;20.00;59.13;99686.67;109176;1277;138476;-59
2022/07/08 09:52:00;;;;;;;7.70;2.00;;;;;;;20.01;58.77;99687.87;109249;1275;22484;-59
2022/07/08 09:54:27;;;;;;;6.30;4.80;;;;;;;20.02;59.20;99688.55;109174;1275;138491;-58
2022/07/08 09:57:01;;;;;;;27.70;16.90;;;;;;;20.11;59.26;99688.48;106276;1274;22567;-59
2022/07/08 09:59:29;;;;;;;3.30;2.90;;;;;;;20.21;58.13;99689.23;104971;1275;22561;-58
2022/07/08 10:01:55;;;;;;;19.20;9.60;;;;;;;20.27;58.14;99689.28;104912;1277;138309;-58
2022/07/08 10:04:24;;;;;;;17.70;9.90;;;;;;;20.32;59.38;99684.92;105023;1277;22601;-58
2022/07/08 10:06:51;;;;;;;6.00;4.80;;;;;;;20.45;59.28;99687.33;104913;1277;138698;-56
2022/07/08 10:09:18;;;;;;;1.90;1.60;;;;;;;20.55;57.83;99682.05;109231;1275;23255;-58
2022/07/08 10:11:48;;;;;;;9.10;2.40;;;;;;;20.63;58.16;99681.00;109236;1276;22424;-57
2022/07/08 10:14:16;;;;;;;8.90;3.40;;;;;;;20.70;58.01;99689.33;109175;1274;138431;-59
2022/07/08 10:16:43;;;;;;;12.50;5.40;;;;;;;20.74;57.61;99688.31;109353;1274;22444;-59
2022/07/08 10:19:13;;;;;;;7.10;3.30;;;;;;;20.77;57.82;99689.88;108923;1277;137477;-58
2022/07/08 10:21:41;;;;;;;6.60;2.60;;;;;;;20.81;58.35;99687.27;109295;1274;22404;-58
2022/07/08 10:24:09;;;;;;;5.30;1.90;;;;;;;20.88;57.99;99692.98;109130;1277;137253;-59
2022/07/08 10:26:38;;;;;;;4.70;1.50;;;;;;;20.95;57.20;99691.90;106786;1274;22731;-59
2022/07/08 10:29:06;;;;;;;4.40;1.60;;;;;;;21.00;56.84;99691.91;109289;1274;22548;-59
2022/07/08 10:31:52;;;;;;;5.30;2.80;;;;;;;21.03;56.82;99689.84;109220;1274;138104;-58
2022/07/08 10:34:20;;;;;;;2.90;1.70;;;;;;;21.06;56.47;99686.27;109305;1276;22426;-59
2022/07/08 10:36:51;;;;;;;8.10;4.70;;;;;;;21.07;56.76;99688.63;109217;1274;138612;-59
2022/07/08 10:39:31;;;;;;;2.90;2.10;;;;;;;21.10;56.52;99687.95;109200;1274;22556;-59
2022/07/08 10:42:05;;;;;;;8.70;4.30;;;;;;;21.15;56.79;99685.98;109309;1274;22514;-59
2022/07/08 10:44:58;;;;;;;34.40;24.10;;;;;;;21.18;56.70;99685.62;109163;1274;137590;-59
2022/07/08 10:47:28;;;;;;;8.10;6.00;;;;;;;21.22;56.93;99687.11;109331;1274;22477;-65
2022/07/08 10:50:06;;;;;;;2.30;1.70;;;;;;;21.23;56.71;99686.20;109244;1274;139078;-60
2022/07/08 10:52:42;;;;;;;18.20;11.10;;;;;;;21.23;55.89;99681.83;109297;1274;22398;-59
2022/07/08 10:55:14;;;;;;;5.80;1.30;;;;;;;21.20;56.13;99685.63;109166;1276;137712;-47
2022/07/08 10:57:57;;;;;;;6.40;2.90;;;;;;;21.18;56.57;99685.67;109329;1275;22473;-59
2022/07/08 11:00:24;;;;;;;3.30;2.20;;;;;;;21.22;56.42;99686.40;109227;1276;137810;-59
2022/07/08 11:02:51;;;;;;;14.80;8.20;;;;;;;21.28;55.92;99691.99;109195;1276;22771;-59
2022/07/08 11:05:56;;;;;;;6.30;4.50;;;;;;;21.32;55.80;99688.71;109359;1274;22430;-58
2022/07/08 11:08:23;;;;;;;11.10;4.80;;;;;;;21.34;55.58;99689.79;108518;1281;137176;-58
2022/07/08 11:10:51;;;;;;;9.00;4.60;;;;;;;21.34;55.39;99680.98;108634;1281;22567;-59
2022/07/08 11:13:22;;;;;;;13.50;8.20;;;;;;;21.34;56.11;99678.77;108459;1281;138150;-58
2022/07/08 11:15:48;;;;;;;23.20;17.80;;;;;;;21.35;56.71;99674.58;108769;1281;23225;-61
2022/07/08 11:18:21;;;;;;;5.50;2.60;;;;;;;21.37;56.43;99675.98;108426;1280;138323;-59
2022/07/08 11:20:48;;;;;;;1.70;1.60;;;;;;;21.43;56.76;99676.54;108604;1281;22575;-59
2022/07/08 11:23:16;;;;;;;4.00;1.70;;;;;;;21.45;56.91;99675.96;108649;1281;22555;-59
2022/07/08 11:25:43;;;;;;;6.20;2.50;;;;;;;21.48;56.94;99672.60;108414;1281;137565;-59
2022/07/08 11:28:20;;;;;;;4.80;2.00;;;;;;;21.53;56.96;99673.36;108609;1280;22526;-59
2022/07/08 11:30:47;;;;;;;2.00;1.60;;;;;;;21.58;56.85;99681.27;108655;1280;138057;-59
2022/07/08 11:33:13;;;;;;;4.20;1.70;;;;;;;21.61;56.42;99674.42;108754;1281;22437;-59
2022/07/08 11:35:41;;;;;;;1.80;1.30;;;;;;;21.61;56.43;99672.08;108648;1280;22354;-59
2022/07/08 11:38:08;;;;;;;3.70;1.50;;;;;;;21.60;55.87;99675.20;108571;1281;137284;-59